Latest Weather Observations for Flinders Island Airport

IDT60801

Issued at 5:31 pm EDT Saturday 13 February 2016 (issued every 30 minutes, with the page automatically refreshed every 10 minutes)

About weather observations | Map of weather stations | Latest weather observations for TAS | Other Formats
Station Details ID: 099005 Name: FLINDERS ISLAND AIRPORT Lat: -40.09 Lon: 148.00 Height: 9.0 m
Data from the previous 72 hours. | See also: Recent months at Flinders Island Airport
Date/Time
EDT
Temp
°C
App
Temp
°C
Dew
Point
Rel
Hum
%
Delta-T
°C
Wind Press
QNH
hPa
Press
MSL
hPa
Rain
since 9 am
mm
Dir
 
Spd
km/h
Gust
km/h
Spd
kts
Gust
kts
13/05:30pm 22.2 18.2 16.2 69 3.6 W 32 37 17 20 1005.1 1005.1 0.0
13/05:00pm 22.5 19.8 16.5 69 3.7 WNW 26 33 14 18 1005.2 1005.2 0.0
13/04:30pm 22.6 19.8 17.3 72 3.3 W 28 33 15 18 1005.3 1005.3 0.0
13/04:00pm 22.8 20.2 17.7 73 3.2 W 28 33 15 18 1005.4 1005.4 0.0
13/03:40pm 23.3 21.3 18.4 74 3.1 W 26 35 14 19 1005.5 1005.5 0.0
13/03:30pm 22.9 20.4 18.0 74 3.1 WNW 28 33 15 18 1005.5 1005.5 0.0
13/03:07pm 22.9 20.2 18.4 76 2.8 WNW 30 37 16 20 1005.5 1005.5 0.0
13/03:00pm 22.9 19.7 18.2 75 3.0 WNW 32 37 17 20 1005.5 1005.5 0.0
13/02:30pm 23.2 20.8 18.3 74 3.1 WNW 28 35 15 19 1005.6 1005.6 0.0
13/02:21pm 23.3 20.8 18.8 76 2.8 WNW 30 35 16 19 1005.6 1005.6 0.0
13/02:00pm 22.9 21.1 18.7 77 2.7 WNW 26 30 14 16 1005.8 1005.8 0.0
13/01:30pm 22.4 20.0 18.2 77 2.6 WNW 28 35 15 19 1006.1 1006.1 0.0
13/01:08pm 22.8 20.7 19.0 79 2.4 WNW 28 37 15 20 1006.0 1006.0 0.0
13/01:00pm 23.3 20.1 18.6 75 3.0 WNW 33 39 18 21 1006.0 1006.0 0.0
13/12:30pm 22.8 19.9 19.2 80 2.3 W 33 43 18 23 1005.9 1005.9 0.0
13/12:00pm 24.9 23.4 19.5 72 3.5 WNW 26 33 14 18 1006.0 1006.0 0.0
13/11:30am 25.0 24.6 19.4 71 3.6 NW 20 28 11 15 1006.0 1006.0 0.0
13/11:00am 24.3 23.9 18.9 72 3.4 W 19 28 10 15 1006.7 1006.7 0.0
13/10:30am 24.1 23.8 18.3 70 3.7 WNW 17 28 9 15 1006.9 1006.9 0.0
13/10:00am 22.2 23.7 18.8 81 2.1 NNW 9 17 5 9 1007.2 1007.2 0.0
13/09:30am 22.7 24.0 17.6 73 3.2 SW 7 9 4 5 1007.6 1007.6 0.0
13/09:00am 22.5 24.8 17.8 75 2.9 NW 2 9 1 5 1007.9 1007.9 0.0
13/08:30am 21.1 22.5 19.6 91 1.0 ENE 11 13 6 7 1007.8 1007.8 0.0
13/08:00am 20.4 21.3 17.6 84 1.7 NE 9 11 5 6 1007.8 1007.8 0.0
13/07:30am 18.7 19.6 16.1 85 1.5 E 6 9 3 5 1007.7 1007.7 0.0
13/07:00am 18.1 19.0 16.6 91 0.9 E 7 9 4 5 1007.4 1007.4 0.0
13/06:30am 18.0 18.6 17.7 98 0.2 ENE 11 13 6 7 1007.2 1007.2 0.0
13/06:00am 15.7 15.7 15.1 96 0.3 ENE 9 13 5 7 1007.4 1007.4 0.0
13/05:30am 16.5 17.1 15.7 95 0.5 ENE 7 11 4 6 1007.8 1007.8 0.0
13/05:00am 17.5 17.8 17.0 97 0.3 NE 11 15 6 8 1007.7 1007.7 0.0
13/04:30am 16.6 18.2 16.0 96 0.4 E 2 11 1 6 1007.9 1007.9 0.0
13/04:00am 17.1 17.9 16.3 95 0.5 SSE 7 9 4 5 1008.4 1008.4 0.0
13/03:30am 17.0 17.9 16.2 95 0.5 NE 6 9 3 5 1008.6 1008.6 0.0
13/03:00am 17.2 16.9 16.4 95 0.5 N 13 20 7 11 1009.1 1009.1 0.0
13/02:30am 16.6 16.2 16.3 98 0.2 N 13 17 7 9 1009.9 1009.9 0.0
13/02:00am 14.6 14.8 14.3 98 0.2 NE 6 11 3 6 1010.1 1010.1 0.0
13/01:30am 14.1 14.1 13.6 97 0.3 ENE 6 9 3 5 1010.2 1010.2 0.0
13/01:15am 13.7 13.4 13.2 97 0.3 NE 7 9 4 5 1010.4 1010.4 0.0
13/01:00am 13.1 12.7 12.5 96 0.3 NNE 6 11 3 6 1010.7 1010.7 0.0
13/12:56am 13.9 14.2 13.3 96 0.3 NNE 4 11 2 6 1010.8 1010.8 0.0
13/12:30am 14.3 14.3 13.7 96 0.3 ENE 6 11 3 6 1011.2 1011.2 0.0
13/12:00am 13.8 13.6 13.0 95 0.4 NE 6 9 3 5 1011.5 1011.5 0.0
 
Date/Time
EDT
Temp
°C
App
Temp
°C
Dew
Point
Rel
Hum
%
Delta-T
°C
Wind Press
QNH
hPa
Press
MSL
hPa
Rain
since 9 am
mm
Dir
 
Spd
km/h
Gust
km/h
Spd
kts
Gust
kts
12/11:30pm 14.5 14.3 13.7 95 0.4 NE 7 9 4 5 1012.0 1012.0 0.0
12/11:00pm 14.4 14.2 13.1 92 0.7 NNE 6 9 3 5 1012.4 1012.4 0.0
12/10:30pm 15.6 15.6 14.1 91 0.8 NE 7 9 4 5 1012.6 1012.6 0.0
12/10:00pm 16.2 16.1 14.9 92 0.7 ENE 9 11 5 6 1012.8 1012.8 0.0
12/09:30pm 16.3 16.1 14.7 90 0.9 NE 9 11 5 6 1012.7 1012.7 0.0
12/09:00pm 17.0 16.8 14.8 87 1.3 NE 9 13 5 7 1012.7 1012.7 0.0
12/08:30pm 19.3 19.6 16.0 81 2.0 NNW 9 9 5 5 1013.1 1013.1 0.0
12/08:00pm 20.7 21.2 16.5 77 2.5 WNW 9 11 5 6 1013.3 1013.3 0.0
12/07:30pm 21.4 21.0 16.1 72 3.2 WNW 13 15 7 8 1013.2 1013.2 0.0
12/07:00pm 21.8 21.5 16.5 72 3.2 W 13 15 7 8 1013.1 1013.1 0.0
12/06:30pm 22.2 22.1 16.9 72 3.2 W 13 20 7 11 1013.1 1013.1 0.0
12/06:00pm 22.2 21.6 16.7 71 3.4 W 15 19 8 10 1013.2 1013.2 0.0
12/05:30pm 22.9 22.3 16.7 68 3.8 W 15 20 8 11 1013.2 1013.2 0.0
12/05:00pm 23.3 22.2 17.3 69 3.7 W 19 22 10 12 1013.4 1013.4 0.0
12/04:30pm 23.1 21.5 15.9 64 4.3 WNW 19 22 10 12 1013.6 1013.6 0.0
12/04:00pm 23.0 22.5 16.8 68 3.8 W 15 20 8 11 1013.9 1013.9 0.0
12/03:30pm 22.1 21.9 16.8 72 3.2 WSW 13 17 7 9 1014.1 1014.1 0.0
12/03:00pm 22.5 22.8 17.0 71 3.4 WSW 11 13 6 7 1014.4 1014.4 0.0
12/02:33pm 22.0 20.9 16.3 70 3.4 W 17 19 9 10 1015.0 1015.0 0.0
12/02:30pm 22.1 21.6 16.8 72 3.2 WSW 15 19 8 10 1014.9 1014.9 0.0
12/02:00pm 22.1 21.1 16.6 71 3.3 SW 17 19 9 10 1014.9 1014.9 0.0
12/01:30pm 23.3 22.5 17.1 68 3.8 SSW 17 20 9 11 1015.1 1015.1 0.0
12/01:00pm 22.9 22.2 16.4 67 4.0 SW 15 19 8 10 1015.5 1015.5 0.0
12/12:30pm 23.1 22.5 17.6 71 3.4 SW 17 22 9 12 1016.0 1016.0 0.0
12/12:00pm 21.5 20.2 15.8 70 3.4 SW 17 20 9 11 1016.2 1016.2 0.0
12/11:30am 22.1 20.8 15.9 68 3.7 SSW 17 20 9 11 1016.2 1016.2 0.0
12/11:00am 23.6 23.3 14.3 56 5.5 SW 9 11 5 6 1016.4 1016.4 0.0
12/10:30am 22.8 23.3 14.9 61 4.7 SSE 6 13 3 7 1016.5 1016.5 0.0
12/10:00am 22.3 22.4 15.4 65 4.1 ENE 9 15 5 8 1016.6 1016.6 0.0
12/09:30am 21.7 22.6 16.0 70 3.4 ENE 6 11 3 6 1016.8 1016.8 0.0
12/09:00am 20.0 21.8 16.4 80 2.2 NNE 2 7 1 4 1016.9 1016.9 0.0
12/08:30am 18.3 19.4 18.1 99 0.1 ENE 9 11 5 6 1016.5 1016.5 0.0
12/08:00am 16.2 16.1 16.0 99 0.1 ENE 11 13 6 7 1016.5 1016.5 0.0
12/07:30am 14.4 13.3 14.2 99 0.1 NE 13 15 7 8 1016.5 1016.5 0.0
12/07:00am 12.5 10.4 12.3 99 0.1 ENE 15 17 8 9 1016.5 1016.5 0.0
12/06:30am 12.4 11.4 12.2 99 0.1 NE 9 11 5 6 1016.4 1016.4 0.0
12/06:00am 13.1 11.5 12.9 99 0.1 NE 13 17 7 9 1016.1 1016.1 0.0
12/05:30am 12.7 11.4 12.4 98 0.2 ENE 11 13 6 7 1015.9 1015.9 0.0
12/05:00am 12.7 11.4 12.4 98 0.2 ENE 11 15 6 8 1015.9 1015.9 0.0
12/04:30am 13.2 12.8 12.9 98 0.2 NE 7 9 4 5 1015.7 1015.7 0.0
12/04:00am 13.3 12.8 12.8 97 0.3 NE 7 9 4 5 1015.8 1015.8 0.0
12/03:30am 15.2 15.1 14.9 98 0.2 NE 9 11 5 6 1015.8 1015.8 0.0
12/03:00am 13.3 14.1 12.5 95 0.4 CALM 0 0 0 0 1016.0 1016.0 0.0
12/02:30am 14.4 15.2 13.8 96 0.3 NE 2 7 1 4 1016.2 1016.2 0.0
12/02:00am 14.9 16.2 14.1 95 0.5 CALM 0 0 0 0 1016.4 1016.4 0.0
12/01:30am 14.4 15.1 13.4 94 0.6 ENE 2 7 1 4 1016.7 1016.7 0.0
12/01:00am 15.6 16.4 14.8 95 0.5 ENE 4 11 2 6 1017.0 1017.0 0.0
12/12:30am 16.0 16.0 15.2 95 0.5 E 9 9 5 5 1017.1 1017.1 0.0
12/12:00am 15.9 16.2 14.9 94 0.6 E 7 9 4 5 1017.2 1017.2 0.0
 
Date/Time
EDT
Temp
°C
App
Temp
°C
Dew
Point
Rel
Hum
%
Delta-T
°C
Wind Press
QNH
hPa
Press
MSL
hPa
Rain
since 9 am
mm
Dir
 
Spd
km/h
Gust
km/h
Spd
kts
Gust
kts
11/11:30pm 15.5 15.5 14.2 92 0.7 ENE 7 9 4 5 1017.2 1017.2 0.0
11/11:00pm 16.9 17.0 15.4 91 0.9 ENE 9 11 5 6 1017.6 1017.6 0.0
11/10:30pm 17.4 18.0 15.7 90 1.0 NNE 7 9 4 5 1017.5 1017.5 0.0
11/10:00pm 17.4 17.9 15.6 89 1.1 ENE 7 7 4 4 1017.3 1017.3 0.0
11/09:30pm 17.8 18.3 15.6 87 1.3 ENE 7 9 4 5 1017.1 1017.1 0.0
11/09:00pm 17.5 17.7 14.8 84 1.6 ENE 7 9 4 5 1016.8 1016.8 0.0
11/08:30pm 19.2 19.8 15.7 80 2.1 ENE 7 11 4 6 1016.6 1016.6 0.0
11/08:00pm 20.1 19.7 16.1 78 2.4 E 13 17 7 9 1016.1 1016.1 0.0
11/07:30pm 20.7 19.7 15.5 72 3.1 E 15 22 8 12 1015.7 1015.7 0.0
11/07:00pm 21.3 20.2 15.4 69 3.5 E 15 20 8 11 1015.5 1015.5 0.0
11/06:30pm 21.8 20.3 15.2 66 3.9 E 17 24 9 13 1015.3 1015.3 0.0
11/06:00pm 21.5 20.3 15.1 67 3.8 E 15 24 8 13 1015.1 1015.1 0.0
11/05:30pm 22.2 21.4 15.1 64 4.2 ESE 13 20 7 11 1015.0 1015.0 0.0
11/05:00pm 22.2 20.3 14.3 61 4.6 E 17 22 9 12 1014.9 1014.9 0.0
11/04:30pm 22.4 21.0 14.5 61 4.6 ESE 15 26 8 14 1015.1 1015.1 0.0
11/04:00pm 23.2 21.7 14.2 57 5.3 SE 15 26 8 14 1015.0 1015.0 0.0
11/03:30pm 23.6 21.9 14.6 57 5.3 SE 17 32 9 17 1014.9 1014.9 0.0
11/03:00pm 24.1 22.4 14.8 56 5.5 SE 17 28 9 15 1015.0 1015.0 0.0
11/02:30pm 23.4 22.1 14.9 59 5.1 ESE 15 28 8 15 1015.0 1015.0 0.0
11/02:00pm 22.6 21.0 15.0 62 4.5 ESE 17 28 9 15 1015.2 1015.2 0.0
11/01:30pm 22.9 21.6 14.7 60 4.9 ESE 15 30 8 16 1015.2 1015.2 0.0
11/01:00pm 22.5 21.4 15.4 64 4.2 ESE 15 26 8 14 1015.2 1015.2 0.0
11/12:30pm 23.0 21.2 15.6 63 4.4 S 19 30 10 16 1015.3 1015.3 0.0
11/12:00pm 21.8 20.2 15.9 69 3.5 S 19 24 10 13 1015.7 1015.7 0.0
11/11:30am 21.3 19.6 16.3 73 3.0 S 20 28 11 15 1015.9 1015.9 0.0
11/11:00am 21.7 19.3 16.4 72 3.2 SSW 24 28 13 15 1015.9 1015.9 0.0
11/10:30am 21.0 19.3 15.8 72 3.1 S 19 28 10 15 1015.9 1015.9 0.0
11/10:00am 21.1 19.3 15.9 72 3.1 S 20 30 11 16 1015.8 1015.8 0.0
11/09:30am 20.0 18.0 15.0 73 2.9 S 19 28 10 15 1015.7 1015.7 0.0
11/09:00am 20.2 19.7 16.0 77 2.5 SSE 13 20 7 11 1015.4 1015.4 0.0
11/08:30am 20.3 19.6 16.3 78 2.4 SSW 15 19 8 10 1015.1 1015.1 0.0
11/08:00am 19.4 19.2 15.7 79 2.2 S 11 17 6 9 1014.8 1014.8 0.0
11/07:30am 18.3 19.0 15.6 84 1.6 SE 6 13 3 7 1014.4 1014.4 0.0
11/07:00am 18.6 16.2 15.5 82 1.8 SSW 22 26 12 14 1013.8 1013.8 0.0
11/06:30am 18.6 16.8 15.5 82 1.8 SSW 19 20 10 11 1013.2 1013.2 0.0
11/06:00am 18.8 16.9 16.6 87 1.3 SW 22 28 12 15 1012.7 1012.7 0.0
11/05:30am 18.5 15.0 15.6 83 1.7 WSW 28 33 15 18 1012.4 1012.4 0.0
11/05:00am 18.8 15.7 15.7 82 1.8 WSW 26 32 14 17 1012.4 1012.4 0.0
11/04:30am 18.8 15.2 15.3 80 2.1 W 28 35 15 19 1012.3 1012.3 0.0
11/04:00am 18.5 15.5 14.8 79 2.2 W 24 30 13 16 1012.4 1012.4 0.0
11/03:48am 18.6 15.2 14.7 78 2.3 W 26 32 14 17 1012.4 1012.4 0.0
11/03:30am 18.7 14.4 14.4 76 2.5 W 30 35 16 19 1012.5 1012.5 0.0
11/03:27am 18.6 14.7 14.5 77 2.4 W 28 35 15 19 1012.5 1012.5 0.0
11/03:26am 18.6 14.7 14.5 77 2.4 W 28 35 15 19 1012.6 1012.6 0.0
11/03:01am 18.8 14.6 14.7 77 2.4 W 30 35 16 19 1012.8 1012.8 0.0
11/03:00am 18.8 14.6 14.7 77 2.4 W 30 35 16 19 1012.8 1012.8 0.0
11/02:59am 18.8 14.6 14.7 77 2.4 W 30 35 16 19 1012.8 1012.8 0.0
11/02:40am 18.8 14.5 14.3 75 2.6 W 30 35 16 19 1012.8 1012.8 0.0
11/02:30am 18.8 14.9 14.3 75 2.6 W 28 35 15 19 1013.0 1013.0 0.0
11/02:20am 19.0 14.7 14.3 74 2.7 W 30 37 16 20 1013.0 1013.0 0.0
11/02:00am 18.9 14.3 14.6 76 2.5 W 32 41 17 22 1013.1 1013.1 0.0
11/01:30am 19.0 14.2 14.5 75 2.6 W 33 39 18 21 1013.2 1013.2 0.0
11/01:11am 19.0 14.4 14.5 75 2.6 W 32 39 17 21 1013.2 1013.2 0.0
11/01:00am 18.9 14.2 14.8 77 2.4 W 33 39 18 21 1013.3 1013.3 0.0
11/12:30am 19.1 14.1 15.0 77 2.4 W 35 41 19 22 1013.2 1013.2 0.0
11/12:00am 19.1 14.0 14.8 76 2.5 W 35 41 19 22 1013.3 1013.3 0.0
 
Date/Time
EDT
Temp
°C
App
Temp
°C
Dew
Point
Rel
Hum
%
Delta-T
°C
Wind Press
QNH
hPa
Press
MSL
hPa
Rain
since 9 am
mm
Dir
 
Spd
km/h
Gust
km/h
Spd
kts
Gust
kts
10/11:30pm 19.2 14.1 14.9 76 2.5 W 35 39 19 21 1013.2 1013.2 0.0
10/11:00pm 19.2 14.7 14.9 76 2.5 W 32 37 17 20 1013.2 1013.2 0.0
10/10:30pm 19.0 15.0 15.3 79 2.2 W 30 35 16 19 1013.4 1013.4 0.0
10/10:00pm 18.9 15.3 15.2 79 2.2 W 28 35 15 19 1013.5 1013.5 0.0
10/09:30pm 18.9 14.8 14.8 77 2.4 W 30 39 16 21 1013.4 1013.4 0.0
10/09:00pm 18.9 15.4 14.6 76 2.5 W 26 35 14 19 1013.1 1013.1 0.0
10/08:30pm 19.0 15.0 15.1 78 2.3 W 30 37 16 20 1012.9 1012.9 0.0
10/08:15pm 19.1 15.0 15.0 77 2.4 W 30 37 16 20 1012.9 1012.9 0.0
10/08:00pm 19.3 14.8 15.0 76 2.5 W 32 41 17 22 1012.8 1012.8 0.0
10/07:30pm 19.6 15.1 15.0 75 2.7 W 32 39 17 21 1012.6 1012.6 0.0
10/07:00pm 19.9 15.4 14.9 73 2.9 W 32 39 17 21 1012.4 1012.4 0.0
10/06:30pm 20.0 15.3 14.4 70 3.3 W 32 37 17 20 1012.3 1012.3 0.0
10/06:00pm 20.2 15.5 14.3 69 3.4 W 32 37 17 20 1012.2 1012.2 0.0
10/05:54pm 20.3 15.7 14.7 70 3.3 W 32 39 17 21 1012.2 1012.2 0.0

Other Formats:

Comma delimited format used in spreadsheet applications
http://www.bom.gov.au/fwo/IDT60801/IDT60801.94980.axf

JavaScript Object Notation format (JSON) in row-major order
http://www.bom.gov.au/fwo/IDT60801/IDT60801.94980.json